Nyk Orpheus — 7JDN — position and weather

sailwx.info

Track history (hours):
 
Tides and Currents Weather Stations Pressure Air Temp Water Temp Dewpoint Dewpoint Depression Visibility Wind Speed Wind Dir Waves Ship Positions

Nyk Orpheus

Last reported at 2015-Aug-31 01:32 UTC. Time now 2015-Aug-31 02:31 UTC.
Position N 22°34' E 114°16'.

Length 336 m; draft 8.7 m.

Type: Other ship. MMSI: 432657000.

Date/timePositionNaut miles runAvg speedWind from/ knotsBaromVisibWave heightAir tempDewpointWater temp
2015-Aug-31 01:32N 22°34' E 114°16'0 0.0
2015-Aug-30 19:32N 22°34' E 114°16'0 0.0
2015-Aug-30 10:33N 22°34' E 114°16'16 7.4
2015-Aug-30 08:24N 22°25' E 114°30'7 7.5
2015-Aug-30 07:26N 22°22' E 114°37'13 2.5
2015-Aug-30 02:18N 22°13' E 114°27'1310.9
2015-Aug-30 01:08N 22°07' E 114°15'1610.1
2015-Aug-29 23:34N 22°20' E 114°05'10 9.8
2015-Aug-29 22:33N 22°22' E 113°54'11 0.8
2015-Aug-29 08:33N 22°19' E 114°05'10 7.7
2015-Aug-29 07:19N 22°11' E 114°12'9 1.1
2015-Aug-28 22:33N 22°20' E 114°07'1 0.9
2015-Aug-28 21:24N 22°21' E 114°07'0 0.0
2015-Aug-28 19:12N 22°21' E 114°07'0 0.0
2015-Aug-28 18:30N 22°21' E 114°07'0 0.0
2015-Aug-28 17:30N 22°21' E 114°07'0 0.0
2015-Aug-28 16:24N 22°21' E 114°07'0 0.0
2015-Aug-28 13:24N 22°21' E 114°07'0 0.0
2015-Aug-28 12:30N 22°21' E 114°07'0 0.4
2015-Aug-28 11:33N 22°20' E 114°07'8 7.3
2015-Aug-28 10:30N 22°13' E 114°10'9 8.2
2015-Aug-28 09:28N 22°09' E 114°18'19 3.9
2015-Aug-28 04:33N 21°51' E 114°24'  
2015-Aug-22 18:06N 01°15' E 104°03'712.2
2015-Aug-22 17:33N 01°13' E 103°56'6 6.0
2015-Aug-22 16:33N 01°16' E 103°50'0 0.0
2015-Aug-22 15:32N 01°16' E 103°50'0 0.0
2015-Aug-22 14:32N 01°16' E 103°50'0 0.0
2015-Aug-22 13:32N 01°16' E 103°50'0 0.0
2015-Aug-22 12:32N 01°16' E 103°50'0 0.0
2015-Aug-22 11:32N 01°16' E 103°50'0 0.0
2015-Aug-22 10:23N 01°16' E 103°50'0 0.0
2015-Aug-22 09:26N 01°16' E 103°50'0 0.0
2015-Aug-22 08:32N 01°16' E 103°50'0 0.0
2015-Aug-22 07:29N 01°16' E 103°50'0 0.0
2015-Aug-22 06:32N 01°16' E 103°50'0 0.0
2015-Aug-22 05:32N 01°16' E 103°50'0 0.0
2015-Aug-22 04:32N 01°16' E 103°50'0 0.0
2015-Aug-22 03:32N 01°16' E 103°50'0 0.0
2015-Aug-21 20:23N 01°16' E 103°50'0 0.0
2015-Aug-21 13:14N 01°16' E 103°50'0 0.0
2015-Aug-21 10:32N 01°16' E 103°50'0 0.1
2015-Aug-21 09:33N 01°16' E 103°51'5 4.5
2015-Aug-21 08:33N 01°12' E 103°53'9 8.9
2015-Aug-21 07:33N 01°07' E 103°45'  
Track history (hours):
 
Tides and Currents Weather Stations Pressure Air Temp Water Temp Dewpoint Dewpoint Depression Visibility Wind Speed Wind Dir Waves Ship Positions

Nyk Orpheus

Last reported at 2015-Aug-31 01:32 UTC. Time now 2015-Aug-31 02:31 UTC.
Position N 22°34' E 114°16'.

Length 336 m; draft 8.7 m.

Type: Other ship. MMSI: 432657000.

Date/timePositionNaut miles runAvg speedWind from/ knotsBaromVisibWave heightAir tempDewpointWater temp
2015-Aug-31 01:32N 22°34' E 114°16'0 0.0
2015-Aug-30 19:32N 22°34' E 114°16'0 0.0
2015-Aug-30 10:33N 22°34' E 114°16'16 7.4
2015-Aug-30 08:24N 22°25' E 114°30'7 7.5
2015-Aug-30 07:26N 22°22' E 114°37'13 2.5
2015-Aug-30 02:18N 22°13' E 114°27'1310.9
2015-Aug-30 01:08N 22°07' E 114°15'1610.1
2015-Aug-29 23:34N 22°20' E 114°05'10 9.8
2015-Aug-29 22:33N 22°22' E 113°54'11 0.8
2015-Aug-29 08:33N 22°19' E 114°05'10 7.7
2015-Aug-29 07:19N 22°11' E 114°12'9 1.1
2015-Aug-28 22:33N 22°20' E 114°07'1 0.9
2015-Aug-28 21:24N 22°21' E 114°07'0 0.0
2015-Aug-28 19:12N 22°21' E 114°07'0 0.0
2015-Aug-28 18:30N 22°21' E 114°07'0 0.0
2015-Aug-28 17:30N 22°21' E 114°07'0 0.0
2015-Aug-28 16:24N 22°21' E 114°07'0 0.0
2015-Aug-28 13:24N 22°21' E 114°07'0 0.0
2015-Aug-28 12:30N 22°21' E 114°07'0 0.4
2015-Aug-28 11:33N 22°20' E 114°07'8 7.3
2015-Aug-28 10:30N 22°13' E 114°10'9 8.2
2015-Aug-28 09:28N 22°09' E 114°18'19 3.9
2015-Aug-28 04:33N 21°51' E 114°24'  
2015-Aug-22 18:06N 01°15' E 104°03'712.2
2015-Aug-22 17:33N 01°13' E 103°56'6 6.0
2015-Aug-22 16:33N 01°16' E 103°50'0 0.0
2015-Aug-22 15:32N 01°16' E 103°50'0 0.0
2015-Aug-22 14:32N 01°16' E 103°50'0 0.0
2015-Aug-22 13:32N 01°16' E 103°50'0 0.0
2015-Aug-22 12:32N 01°16' E 103°50'0 0.0
2015-Aug-22 11:32N 01°16' E 103°50'0 0.0
2015-Aug-22 10:23N 01°16' E 103°50'0 0.0
2015-Aug-22 09:26N 01°16' E 103°50'0 0.0
2015-Aug-22 08:32N 01°16' E 103°50'0 0.0
2015-Aug-22 07:29N 01°16' E 103°50'0 0.0
2015-Aug-22 06:32N 01°16' E 103°50'0 0.0
2015-Aug-22 05:32N 01°16' E 103°50'0 0.0
2015-Aug-22 04:32N 01°16' E 103°50'0 0.0
2015-Aug-22 03:32N 01°16' E 103°50'0 0.0
2015-Aug-21 20:23N 01°16' E 103°50'0 0.0
2015-Aug-21 13:14N 01°16' E 103°50'0 0.0
2015-Aug-21 10:32N 01°16' E 103°50'0 0.1
2015-Aug-21 09:33N 01°16' E 103°51'5 4.5
2015-Aug-21 08:33N 01°12' E 103°53'9 8.9
2015-Aug-21 07:33N 01°07' E 103°45'  

Dump ship's entire track history